MMZ772P LPPT-LPPR
Flight info
| Callsign | MMZ772P |
|---|---|
| Flight time | 0h 29m |
| Altitude | 20000 |
| Route | IXIDA DCT ABLEG |
| Aircraft | B772/H-SDE2E3FGHIJ5LORVWXY/LB1D1 |
Departure
| Time | 2026-05-07 18:54 |
|---|---|
| Airport | Lisbon Humberto Delgado Airport (LPPT) |
Arrival
| Time | 2026-05-07 19:23 |
|---|---|
| Airport | Francisco de Sá Carneiro Airport (LPPR) |
| Time | Latitude | Longitude | Altitude | Speed | Heading |
|---|---|---|---|---|---|
| 2026-05-07 18:06 | 38.76884 | -9.13590 | 351 ft | 0 kts | 258° |
| 2026-05-07 18:44 | 38.76885 | -9.13580 | 361 ft | 4 kts | 257° |
| 2026-05-07 18:44 | 38.76893 | -9.13547 | 359 ft | 4 kts | 249° |
| 2026-05-07 18:44 | 38.76904 | -9.13516 | 360 ft | 4 kts | 230° |
| 2026-05-07 18:45 | 38.76923 | -9.13499 | 360 ft | 4 kts | 177° |
| 2026-05-07 18:45 | 38.76928 | -9.13499 | 360 ft | 0 kts | 168° |
| 2026-05-07 18:48 | 38.76895 | -9.13490 | 357 ft | 9 kts | 168° |
| 2026-05-07 18:48 | 38.76831 | -9.13471 | 357 ft | 10 kts | 162° |
| 2026-05-07 18:49 | 38.76758 | -9.13451 | 354 ft | 10 kts | 169° |
| 2026-05-07 18:49 | 38.76697 | -9.13442 | 355 ft | 9 kts | 185° |
| 2026-05-07 18:49 | 38.76656 | -9.13491 | 357 ft | 9 kts | 252° |
| 2026-05-07 18:49 | 38.76640 | -9.13569 | 358 ft | 9 kts | 255° |
| 2026-05-07 18:50 | 38.76625 | -9.13650 | 354 ft | 9 kts | 259° |
| 2026-05-07 18:50 | 38.76613 | -9.13733 | 355 ft | 10 kts | 259° |
| 2026-05-07 18:50 | 38.76598 | -9.13827 | 358 ft | 18 kts | 257° |
| 2026-05-07 18:50 | 38.76578 | -9.13943 | 355 ft | 8 kts | 258° |
| 2026-05-07 18:51 | 38.76556 | -9.14015 | 358 ft | 11 kts | 236° |
| 2026-05-07 18:51 | 38.76509 | -9.14087 | 359 ft | 10 kts | 235° |
| 2026-05-07 18:51 | 38.76497 | -9.14170 | 355 ft | 8 kts | 277° |
| 2026-05-07 18:51 | 38.76514 | -9.14237 | 351 ft | 7 kts | 291° |
| 2026-05-07 18:52 | 38.76527 | -9.14277 | 349 ft | 2 kts | 293° |
| 2026-05-07 18:52 | 38.76531 | -9.14287 | 354 ft | 0 kts | 293° |
| 2026-05-07 18:53 | 38.76535 | -9.14298 | 353 ft | 4 kts | 294° |
| 2026-05-07 18:53 | 38.76549 | -9.14342 | 336 ft | 0 kts | 294° |
| 2026-05-07 18:53 | 38.76578 | -9.14405 | 336 ft | 8 kts | 329° |
| 2026-05-07 18:53 | 38.76631 | -9.14397 | 336 ft | 6 kts | 19° |
| 2026-05-07 18:54 | 38.76686 | -9.14369 | 349 ft | 23 kts | 22° |
| 2026-05-07 18:54 | 38.77225 | -9.14084 | 369 ft | 151 kts | 22° |
| 2026-05-07 18:54 | 38.78432 | -9.13377 | 1098 ft | 213 kts | 24° |
| 2026-05-07 18:54 | 38.79863 | -9.12440 | 2504 ft | 247 kts | 23° |
| 2026-05-07 18:55 | 38.81391 | -9.11487 | 3942 ft | 244 kts | 23° |
| 2026-05-07 18:55 | 38.82955 | -9.10513 | 5075 ft | 255 kts | 25° |
| 2026-05-07 18:55 | 38.84523 | -9.09426 | 6381 ft | 257 kts | 30° |
| 2026-05-07 18:55 | 38.86096 | -9.08227 | 7407 ft | 269 kts | 32° |
| 2026-05-07 18:56 | 38.87765 | -9.06931 | 8307 ft | 289 kts | 33° |
| 2026-05-07 18:56 | 38.89492 | -9.05584 | 9478 ft | 297 kts | 34° |
| 2026-05-07 18:56 | 38.91167 | -9.03958 | 10535 ft | 309 kts | 43° |
| 2026-05-07 18:56 | 38.92820 | -9.02028 | 11269 ft | 332 kts | 45° |
| 2026-05-07 18:57 | 38.94529 | -8.99947 | 12326 ft | 343 kts | 45° |
| 2026-05-07 18:57 | 38.96285 | -8.97817 | 13532 ft | 350 kts | 45° |
| 2026-05-07 18:57 | 38.98078 | -8.95669 | 14691 ft | 356 kts | 45° |
| 2026-05-07 18:57 | 38.99904 | -8.93503 | 15924 ft | 357 kts | 44° |
| 2026-05-07 18:58 | 39.01742 | -8.91341 | 17237 ft | 358 kts | 44° |
| 2026-05-07 18:58 | 39.03591 | -8.89173 | 18426 ft | 361 kts | 44° |
| 2026-05-07 18:58 | 39.05459 | -8.86983 | 19290 ft | 366 kts | 44° |
| 2026-05-07 18:58 | 39.07360 | -8.84757 | 19875 ft | 376 kts | 43° |
| 2026-05-07 18:59 | 39.09359 | -8.82521 | 20596 ft | 385 kts | 36° |
| 2026-05-07 18:59 | 39.11717 | -8.80829 | 21494 ft | 390 kts | 20° |
| 2026-05-07 18:59 | 39.14315 | -8.79896 | 22610 ft | 384 kts | 7° |
| 2026-05-07 18:59 | 39.16919 | -8.79313 | 23521 ft | 388 kts | 6° |
| 2026-05-07 19:00 | 39.19575 | -8.78732 | 23910 ft | 386 kts | 6° |
| 2026-05-07 19:00 | 39.22224 | -8.78156 | 23927 ft | 387 kts | 6° |
| 2026-05-07 19:00 | 39.24913 | -8.77598 | 23956 ft | 402 kts | 5° |
| 2026-05-07 19:00 | 39.27769 | -8.77065 | 23955 ft | 427 kts | 5° |
| 2026-05-07 19:01 | 39.30788 | -8.76488 | 23941 ft | 449 kts | 5° |
| 2026-05-07 19:01 | 39.33902 | -8.75851 | 23933 ft | 455 kts | 6° |
| 2026-05-07 19:01 | 39.37034 | -8.75168 | 23930 ft | 456 kts | 7° |
| 2026-05-07 19:01 | 39.40158 | -8.74458 | 23924 ft | 456 kts | 7° |
| 2026-05-07 19:02 | 39.43279 | -8.73732 | 23925 ft | 456 kts | 7° |
| 2026-05-07 19:02 | 39.46403 | -8.73000 | 23923 ft | 456 kts | 7° |
| 2026-05-07 19:02 | 39.49521 | -8.72267 | 23934 ft | 456 kts | 7° |
| 2026-05-07 19:02 | 39.52606 | -8.71543 | 23921 ft | 456 kts | 7° |
| 2026-05-07 19:03 | 39.55727 | -8.70812 | 23927 ft | 455 kts | 7° |
| 2026-05-07 19:03 | 39.58885 | -8.70073 | 23918 ft | 455 kts | 7° |
| 2026-05-07 19:03 | 39.62006 | -8.69343 | 23917 ft | 455 kts | 7° |
| 2026-05-07 19:03 | 39.65081 | -8.68623 | 23919 ft | 455 kts | 7° |
| 2026-05-07 19:04 | 39.68200 | -8.67891 | 23917 ft | 455 kts | 7° |
| 2026-05-07 19:04 | 39.71315 | -8.67161 | 23927 ft | 455 kts | 7° |
| 2026-05-07 19:04 | 39.74437 | -8.66429 | 23924 ft | 456 kts | 7° |
| 2026-05-07 19:04 | 39.77560 | -8.65695 | 23928 ft | 456 kts | 7° |
| 2026-05-07 19:05 | 39.80679 | -8.64962 | 23922 ft | 457 kts | 7° |
| 2026-05-07 19:05 | 39.83830 | -8.64242 | 23912 ft | 456 kts | 6° |
| 2026-05-07 19:05 | 39.86977 | -8.63895 | 23911 ft | 453 kts | 358° |
| 2026-05-07 19:05 | 39.90127 | -8.63848 | 23920 ft | 452 kts | 357° |
| 2026-05-07 19:06 | 39.93283 | -8.63809 | 23920 ft | 453 kts | 357° |
| 2026-05-07 19:06 | 39.99549 | -8.63706 | 23227 ft | 457 kts | 358° |
| 2026-05-07 19:06 | 40.02733 | -8.63640 | 22743 ft | 459 kts | 358° |
| 2026-05-07 19:07 | 40.05895 | -8.63563 | 22029 ft | 445 kts | 359° |
| 2026-05-07 19:07 | 40.08987 | -8.63484 | 21033 ft | 449 kts | 359° |
| 2026-05-07 19:07 | 40.12122 | -8.63405 | 20498 ft | 445 kts | 360° |
| 2026-05-07 19:07 | 40.15166 | -8.63325 | 19575 ft | 433 kts | 0° |
| 2026-05-07 19:08 | 40.18178 | -8.63248 | 18765 ft | 431 kts | 0° |
| 2026-05-07 19:08 | 40.21171 | -8.63172 | 17901 ft | 429 kts | 1° |
| 2026-05-07 19:08 | 40.24151 | -8.63095 | 17022 ft | 426 kts | 1° |
| 2026-05-07 19:08 | 40.27102 | -8.63019 | 16217 ft | 422 kts | 1° |
| 2026-05-07 19:09 | 40.30016 | -8.62944 | 15482 ft | 416 kts | 1° |
| 2026-05-07 19:09 | 40.32905 | -8.62870 | 14704 ft | 413 kts | 1° |
| 2026-05-07 19:09 | 40.35768 | -8.62796 | 13974 ft | 410 kts | 1° |
| 2026-05-07 19:09 | 40.38608 | -8.62724 | 13223 ft | 406 kts | 1° |
| 2026-05-07 19:10 | 40.41416 | -8.62653 | 12482 ft | 402 kts | 1° |
| 2026-05-07 19:10 | 40.44194 | -8.62582 | 11778 ft | 397 kts | 1° |
| 2026-05-07 19:10 | 40.46947 | -8.62512 | 11083 ft | 393 kts | 1° |
| 2026-05-07 19:10 | 40.49631 | -8.62443 | 10411 ft | 389 kts | 1° |
| 2026-05-07 19:11 | 40.52328 | -8.62374 | 9724 ft | 386 kts | 1° |
| 2026-05-07 19:11 | 40.55037 | -8.62304 | 8991 ft | 382 kts | 1° |
| 2026-05-07 19:11 | 40.57738 | -8.62233 | 8771 ft | 406 kts | 1° |
| 2026-05-07 19:11 | 40.60570 | -8.62161 | 8744 ft | 399 kts | 1° |
| 2026-05-07 19:12 | 40.63301 | -8.62096 | 8267 ft | 386 kts | 1° |
| 2026-05-07 19:12 | 40.65919 | -8.62028 | 8128 ft | 366 kts | 1° |
| 2026-05-07 19:12 | 40.68400 | -8.61962 | 8009 ft | 348 kts | 1° |
| 2026-05-07 19:12 | 40.70760 | -8.61900 | 7877 ft | 331 kts | 1° |
| 2026-05-07 19:13 | 40.73014 | -8.61840 | 7782 ft | 317 kts | 1° |
| 2026-05-07 19:13 | 40.75242 | -8.61783 | 7757 ft | 320 kts | 1° |
| 2026-05-07 19:13 | 40.77361 | -8.61728 | 7455 ft | 292 kts | 0° |
| 2026-05-07 19:13 | 40.79318 | -8.61676 | 7040 ft | 270 kts | 0° |
| 2026-05-07 19:14 | 40.81169 | -8.61628 | 6755 ft | 268 kts | 0° |
| 2026-05-07 19:14 | 40.83052 | -8.61580 | 6558 ft | 267 kts | 360° |
| 2026-05-07 19:14 | 40.84857 | -8.61533 | 6146 ft | 253 kts | 360° |
| 2026-05-07 19:14 | 40.86545 | -8.61488 | 5967 ft | 231 kts | 359° |
| 2026-05-07 19:15 | 40.88107 | -8.61447 | 5667 ft | 219 kts | 360° |
| 2026-05-07 19:15 | 40.89601 | -8.61409 | 5437 ft | 212 kts | 359° |
| 2026-05-07 19:15 | 40.91098 | -8.61371 | 5249 ft | 218 kts | 359° |
| 2026-05-07 19:15 | 40.92629 | -8.61332 | 4974 ft | 220 kts | 359° |
| 2026-05-07 19:16 | 40.94102 | -8.61293 | 4697 ft | 203 kts | 359° |
| 2026-05-07 19:16 | 40.95463 | -8.61256 | 4457 ft | 189 kts | 358° |
| 2026-05-07 19:16 | 40.96750 | -8.61222 | 4270 ft | 183 kts | 358° |
| 2026-05-07 19:16 | 40.98005 | -8.61189 | 4210 ft | 184 kts | 358° |
| 2026-05-07 19:17 | 40.99284 | -8.61339 | 4056 ft | 183 kts | 346° |
| 2026-05-07 19:17 | 41.00507 | -8.61682 | 3710 ft | 180 kts | 346° |
| 2026-05-07 19:17 | 41.01705 | -8.62021 | 3714 ft | 174 kts | 346° |
| 2026-05-07 19:17 | 41.02908 | -8.62350 | 3690 ft | 180 kts | 346° |
| 2026-05-07 19:18 | 41.04130 | -8.62636 | 3672 ft | 182 kts | 348° |
| 2026-05-07 19:18 | 41.05370 | -8.62911 | 3674 ft | 180 kts | 348° |
| 2026-05-07 19:18 | 41.06607 | -8.63231 | 3514 ft | 181 kts | 347° |
| 2026-05-07 19:18 | 41.07841 | -8.63575 | 3258 ft | 180 kts | 347° |
| 2026-05-07 19:19 | 41.09054 | -8.63899 | 2891 ft | 173 kts | 347° |
| 2026-05-07 19:19 | 41.10186 | -8.64172 | 2686 ft | 158 kts | 347° |
| 2026-05-07 19:19 | 41.11241 | -8.64446 | 2534 ft | 150 kts | 346° |
| 2026-05-07 19:19 | 41.12244 | -8.64726 | 2390 ft | 146 kts | 346° |
| 2026-05-07 19:20 | 41.13219 | -8.65011 | 2233 ft | 140 kts | 346° |
| 2026-05-07 19:20 | 41.14140 | -8.65224 | 2132 ft | 127 kts | 350° |
| 2026-05-07 19:20 | 41.14966 | -8.65382 | 1948 ft | 114 kts | 347° |
| 2026-05-07 19:20 | 41.15774 | -8.65642 | 1851 ft | 126 kts | 342° |
| 2026-05-07 19:21 | 41.16642 | -8.65962 | 1734 ft | 132 kts | 341° |
| 2026-05-07 19:21 | 41.17527 | -8.66225 | 1613 ft | 129 kts | 348° |
| 2026-05-07 19:21 | 41.18419 | -8.66425 | 1486 ft | 130 kts | 346° |
| 2026-05-07 19:21 | 41.19308 | -8.66686 | 1289 ft | 131 kts | 344° |
| 2026-05-07 19:22 | 41.20197 | -8.66956 | 1075 ft | 126 kts | 349° |
| 2026-05-07 19:22 | 41.21035 | -8.67118 | 838 ft | 117 kts | 345° |
| 2026-05-07 19:22 | 41.21813 | -8.67350 | 662 ft | 114 kts | 347° |
| 2026-05-07 19:22 | 41.22610 | -8.67547 | 464 ft | 118 kts | 344° |
| 2026-05-07 19:23 | 41.23412 | -8.67748 | 275 ft | 117 kts | 347° |
| 2026-05-07 19:23 | 41.24150 | -8.67954 | 238 ft | 94 kts | 349° |
| 2026-05-07 19:23 | 41.24639 | -8.68080 | 242 ft | 49 kts | 349° |
| 2026-05-07 19:23 | 41.24851 | -8.68134 | 242 ft | 30 kts | 349° |
| 2026-05-07 19:24 | 41.25057 | -8.68170 | 238 ft | 25 kts | 1° |
| 2026-05-07 19:24 | 41.25216 | -8.68128 | 239 ft | 18 kts | 18° |
| 2026-05-07 19:24 | 41.25289 | -8.68067 | 239 ft | 6 kts | 71° |
| 2026-05-07 19:24 | 41.25267 | -8.68017 | 239 ft | 17 kts | 148° |
| 2026-05-07 19:25 | 41.25144 | -8.67981 | 239 ft | 18 kts | 168° |
| 2026-05-07 19:25 | 41.25030 | -8.67950 | 240 ft | 13 kts | 168° |
| 2026-05-07 19:25 | 41.24950 | -8.67929 | 240 ft | 12 kts | 169° |
| 2026-05-07 19:25 | 41.24867 | -8.67897 | 240 ft | 13 kts | 157° |
| 2026-05-07 19:26 | 41.24785 | -8.67838 | 240 ft | 13 kts | 153° |
| 2026-05-07 19:26 | 41.24694 | -8.67806 | 240 ft | 14 kts | 171° |
| 2026-05-07 19:26 | 41.24607 | -8.67785 | 240 ft | 11 kts | 168° |
| 2026-05-07 19:26 | 41.24534 | -8.67764 | 240 ft | 11 kts | 168° |
| 2026-05-07 19:27 | 41.24462 | -8.67745 | 240 ft | 10 kts | 168° |
| 2026-05-07 19:27 | 41.24389 | -8.67726 | 240 ft | 11 kts | 169° |
| 2026-05-07 19:27 | 41.24311 | -8.67698 | 240 ft | 10 kts | 154° |
| 2026-05-07 19:27 | 41.24260 | -8.67631 | 240 ft | 11 kts | 130° |
| 2026-05-07 19:28 | 41.24219 | -8.67567 | 240 ft | 6 kts | 135° |
| 2026-05-07 19:28 | 41.24189 | -8.67517 | 240 ft | 8 kts | 130° |
| 2026-05-07 19:28 | 41.24144 | -8.67469 | 240 ft | 9 kts | 150° |
| 2026-05-07 19:28 | 41.24083 | -8.67437 | 240 ft | 10 kts | 163° |
| 2026-05-07 19:29 | 41.24012 | -8.67425 | 240 ft | 10 kts | 185° |
| 2026-05-07 19:29 | 41.23959 | -8.67449 | 240 ft | 5 kts | 209° |
| 2026-05-07 19:29 | 41.23932 | -8.67460 | 240 ft | 2 kts | 175° |
| 2026-05-07 19:29 | 41.23919 | -8.67448 | 240 ft | 3 kts | 140° |
| 2026-05-07 19:30 | 41.23905 | -8.67424 | 240 ft | 4 kts | 125° |
| 2026-05-07 19:30 | 41.23896 | -8.67406 | 240 ft | 3 kts | 125° |
| 2026-05-07 19:30 | 41.23889 | -8.67393 | 240 ft | 1 kts | 124° |
| 2026-05-07 19:30 | 41.23887 | -8.67390 | 240 ft | 1 kts | 124° |
| 2026-05-07 19:31 | 41.23886 | -8.67387 | 240 ft | 0 kts | 124° |